createdAt,value
2022-10-21T00:02:10.013Z,99848.03
2022-10-21T00:04:58.435Z,99857.19
2022-10-21T00:07:46.850Z,99844.16
2022-10-21T00:13:27.547Z,99851.22
2022-10-21T00:16:19.319Z,99856.75
2022-10-21T00:19:07.771Z,99873.00
2022-10-21T00:21:56.193Z,99868.06
2022-10-21T00:24:44.592Z,99858.41
2022-10-21T00:27:34.405Z,99858.25
2022-10-21T00:30:22.902Z,99875.94
2022-10-21T00:33:11.324Z,99882.88
2022-10-21T00:36:02.662Z,99892.03
2022-10-21T00:38:51.111Z,99899.84
2022-10-21T00:41:39.567Z,99885.84
2022-10-21T00:44:29.331Z,99876.56
2022-10-21T00:47:22.594Z,99871.97
2022-10-21T00:50:20.659Z,99841.94
2022-10-21T00:53:12.315Z,99848.78
2022-10-21T00:56:05.403Z,99828.00
2022-10-21T00:58:55.615Z,99813.03
2022-10-21T01:01:45.412Z,99810.06
2022-10-21T01:04:33.845Z,99812.63
2022-10-21T01:07:22.231Z,99814.81
2022-10-21T01:10:10.710Z,99798.91
2022-10-21T01:13:10.605Z,99782.28
2022-10-21T01:16:03.759Z,99751.19
2022-10-21T01:19:00.895Z,99789.16
2022-10-21T01:21:51.987Z,99755.03
2022-10-21T01:24:59.240Z,99735.94
2022-10-21T01:27:53.388Z,99766.38
2022-10-21T01:30:44.045Z,99752.22
2022-10-21T01:33:39.922Z,99754.19
2022-10-21T01:36:32.535Z,99740.81
2022-10-21T01:39:25.364Z,99744.22
2022-10-21T01:42:17.829Z,99742.84
2022-10-21T01:45:11.126Z,99741.75
2022-10-21T01:48:04.561Z,99736.00
2022-10-21T01:50:54.560Z,99731.16
2022-10-21T01:53:46.825Z,99736.50
2022-10-21T01:56:35.340Z,99727.09
2022-10-21T01:59:26.923Z,99719.91
2022-10-21T02:02:17.087Z,99724.41
2022-10-21T02:05:11.452Z,99678.44
2022-10-21T02:07:59.886Z,99716.97
2022-10-21T02:10:50.281Z,99712.28
2022-10-21T02:13:43.334Z,99703.75
2022-10-21T02:16:36.695Z,99695.34
2022-10-21T02:19:25.144Z,99703.69
2022-10-21T02:22:18.862Z,99700.41
2022-10-21T02:25:11.599Z,99691.81
2022-10-21T02:28:00.187Z,99675.69
2022-10-21T02:30:57.476Z,99669.78
2022-10-21T02:33:53.328Z,99665.47
2022-10-21T02:36:51.278Z,99661.28
2022-10-21T02:39:45.622Z,99660.41
2022-10-21T02:42:37.137Z,99651.22
2022-10-21T02:45:27.315Z,99626.75
2022-10-21T02:48:15.775Z,99641.78
2022-10-21T02:51:05.954Z,99634.66
2022-10-21T02:53:54.347Z,99632.47
2022-10-21T02:56:44.099Z,99630.84
2022-10-21T02:59:32.518Z,99633.31
2022-10-21T03:02:20.908Z,99642.38
2022-10-21T03:05:10.401Z,99645.56
2022-10-21T03:07:58.823Z,99634.19
2022-10-21T03:10:52.979Z,99630.69
2022-10-21T03:13:43.323Z,99606.53
2022-10-21T03:16:31.740Z,99622.19
2022-10-21T03:19:20.162Z,99620.69
2022-10-21T03:22:08.604Z,99619.06
2022-10-21T03:24:57.098Z,99579.19
2022-10-21T03:27:45.495Z,99619.22
2022-10-21T03:30:35.266Z,99611.47
2022-10-21T03:33:23.681Z,99618.75
2022-10-21T03:36:12.112Z,99613.97
2022-10-21T03:39:00.537Z,99602.13
2022-10-21T03:41:48.949Z,99600.22
2022-10-21T03:44:37.410Z,99602.53
2022-10-21T03:47:27.200Z,99613.91
2022-10-21T03:50:18.210Z,99609.56
2022-10-21T03:53:13.972Z,99601.16
2022-10-21T03:56:13.327Z,99565.25
2022-10-21T03:59:01.754Z,99608.66
2022-10-21T04:01:50.205Z,99600.06
2022-10-21T04:04:40.025Z,99598.44
2022-10-21T04:07:28.439Z,99596.44
2022-10-21T04:10:16.956Z,99542.28
2022-10-21T04:13:05.395Z,99604.47
2022-10-21T04:15:58.826Z,99590.97
2022-10-21T04:18:47.391Z,99589.22
2022-10-21T04:21:37.176Z,99585.97
2022-10-21T04:24:25.600Z,99591.38
2022-10-21T04:27:14.025Z,99605.69
2022-10-21T04:30:02.408Z,99597.09
2022-10-21T04:32:51.691Z,99593.00
2022-10-21T04:35:40.870Z,99547.78
2022-10-21T04:38:30.655Z,99588.44
2022-10-21T04:41:19.056Z,99584.06
2022-10-21T04:44:07.546Z,99562.25
2022-10-21T04:46:56.002Z,99587.31
2022-10-21T04:49:44.421Z,99580.00
2022-10-21T04:52:32.848Z,99598.41
2022-10-21T04:55:22.585Z,99595.66
2022-10-21T04:58:11.203Z,99596.78
2022-10-21T05:00:59.711Z,99595.13
2022-10-21T05:03:48.198Z,99582.78
2022-10-21T05:06:36.603Z,99596.13
2022-10-21T05:09:25.059Z,99605.53
2022-10-21T05:12:14.919Z,99596.31
2022-10-21T05:15:03.392Z,99598.34
2022-10-21T05:17:52.504Z,99587.22
2022-10-21T05:20:40.926Z,99582.69
2022-10-21T05:23:29.484Z,99579.09
2022-10-21T05:26:17.894Z,99584.41
2022-10-21T05:29:07.742Z,99591.53
2022-10-21T05:31:56.164Z,99582.38
2022-10-21T05:34:44.567Z,99586.38
2022-10-21T05:37:33.167Z,99585.59
2022-10-21T05:40:21.634Z,99581.56
2022-10-21T05:43:10.064Z,99568.69
2022-10-21T05:45:59.948Z,99564.56
2022-10-21T05:51:41.953Z,99581.63
2022-10-21T05:54:30.422Z,99585.97
2022-10-21T05:57:18.868Z,99571.09
2022-10-21T06:00:08.891Z,99571.41
2022-10-21T06:02:58.704Z,99571.41
2022-10-21T06:05:47.149Z,99568.66
2022-10-21T06:08:37.546Z,99563.41
2022-10-21T06:11:26.081Z,99569.94
2022-10-21T06:14:14.528Z,99572.06
2022-10-21T06:17:03.076Z,99571.34
2022-10-21T06:19:52.908Z,99572.06
2022-10-21T06:22:41.361Z,99563.72
2022-10-21T06:25:29.910Z,99556.13
2022-10-21T06:28:18.365Z,99560.44
2022-10-21T06:31:07.943Z,99568.69
2022-10-21T06:33:56.384Z,99568.78
2022-10-21T06:36:46.204Z,99568.94
2022-10-21T06:39:34.616Z,99586.13
2022-10-21T06:42:23.043Z,99598.50
2022-10-21T06:45:12.061Z,99602.84
2022-10-21T06:48:00.513Z,99606.59
2022-10-21T06:50:48.959Z,99599.31
2022-10-21T06:53:39.642Z,99607.84
2022-10-21T06:56:28.896Z,99603.50
2022-10-21T06:59:17.393Z,99571.25
2022-10-21T07:02:05.874Z,99570.31
2022-10-21T07:04:54.306Z,99581.31
2022-10-21T07:07:42.759Z,99575.66
2022-10-21T07:10:32.629Z,99587.63
2022-10-21T07:13:25.532Z,99602.94
2022-10-21T07:16:25.468Z,99382.19
2022-10-21T07:19:14.152Z,99631.00
2022-10-21T07:22:02.637Z,99636.88
2022-10-21T07:24:51.153Z,99611.84
2022-10-21T07:27:42.443Z,99632.19
2022-10-21T07:30:33.313Z,99622.88
2022-10-21T07:33:21.781Z,99626.53
2022-10-21T07:36:12.335Z,99633.19
2022-10-21T07:39:03.315Z,99603.00
2022-10-21T07:41:52.998Z,99632.75
2022-10-21T07:44:42.836Z,99637.91
2022-10-21T07:47:31.391Z,99646.25
2022-10-21T07:50:19.953Z,99633.19
2022-10-21T07:53:12.459Z,99630.13
2022-10-21T07:56:06.964Z,99621.19
2022-10-21T07:58:55.787Z,99633.63
2022-10-21T08:01:47.367Z,99632.19
2022-10-21T08:04:35.835Z,99643.63
2022-10-21T08:07:24.459Z,99623.97
2022-10-21T08:10:12.883Z,99651.16
2022-10-21T08:13:01.301Z,99657.47
2022-10-21T08:15:50.923Z,99663.34
2022-10-21T08:18:40.749Z,99657.47
2022-10-21T08:21:31.119Z,99663.19
2022-10-21T08:24:19.612Z,99675.88
2022-10-21T08:27:08.111Z,99680.00
2022-10-21T08:29:56.606Z,99651.16
2022-10-21T08:32:45.268Z,99656.47
2022-10-21T08:35:35.119Z,99681.13
2022-10-21T08:38:23.741Z,99689.25
2022-10-21T08:41:24.636Z,99686.94
2022-10-21T08:44:18.257Z,99688.22
2022-10-21T08:47:12.966Z,99711.53
2022-10-21T08:50:03.652Z,99717.97
2022-10-21T08:52:56.393Z,99706.84
2022-10-21T08:55:46.330Z,99679.81
2022-10-21T08:58:35.294Z,99716.25
2022-10-21T09:01:29.720Z,99719.78
2022-10-21T09:04:24.342Z,99698.38
2022-10-21T09:07:19.473Z,99733.88
2022-10-21T09:10:16.088Z,99718.03
2022-10-21T09:13:08.127Z,99736.78
2022-10-21T09:16:02.867Z,99703.94
2022-10-21T09:19:00.042Z,99715.16
2022-10-21T09:22:16.452Z,99719.41
2022-10-21T09:25:20.490Z,99727.81
2022-10-21T09:28:13.657Z,99720.84
2022-10-21T09:31:03.910Z,99723.38
2022-10-21T09:33:56.344Z,99730.59
2022-10-21T09:36:48.539Z,99734.25
2022-10-21T09:39:41.882Z,99745.97
2022-10-21T09:42:48.489Z,99737.34
2022-10-21T09:45:39.176Z,99744.22
2022-10-21T09:48:35.527Z,99746.19
2022-10-21T09:51:32.917Z,99739.44
2022-10-21T09:54:23.477Z,99744.81
2022-10-21T09:57:14.931Z,99741.53
2022-10-21T10:00:08.347Z,99745.00
2022-10-21T10:03:00.041Z,99752.69
2022-10-21T10:05:49.126Z,99755.41
2022-10-21T10:08:39.565Z,99742.88
2022-10-21T10:11:28.117Z,99750.34
2022-10-21T10:14:31.802Z,99751.47
2022-10-21T10:17:28.871Z,99755.59
2022-10-21T10:20:20.189Z,99755.06
2022-10-21T10:23:19.256Z,99759.28
2022-10-21T10:26:08.637Z,99758.94
2022-10-21T10:28:59.277Z,99765.53
2022-10-21T10:31:50.806Z,99775.53
2022-10-21T10:34:51.544Z,99771.81
2022-10-21T10:37:40.688Z,99784.94
2022-10-21T10:40:32.542Z,99788.09
2022-10-21T10:43:26.080Z,99782.13
2022-10-21T10:46:24.158Z,99772.75
2022-10-21T10:49:22.473Z,99775.03
2022-10-21T10:52:24.073Z,99768.63
2022-10-21T10:55:18.504Z,99765.81
2022-10-21T10:58:12.713Z,99751.69
2022-10-21T11:01:10.936Z,99757.47
2022-10-21T11:04:03.782Z,99756.44
2022-10-21T11:06:55.553Z,99749.22
2022-10-21T11:09:46.127Z,99748.91
2022-10-21T11:12:34.758Z,99744.56
2022-10-21T11:15:26.888Z,99748.91
2022-10-21T11:18:24.482Z,99751.34
2022-10-21T11:21:25.341Z,99760.34
2022-10-21T11:24:52.735Z,99759.44
2022-10-21T11:28:00.010Z,99767.31
2022-10-21T11:30:59.822Z,99755.44
2022-10-21T11:33:52.620Z,99749.97
2022-10-21T11:36:49.714Z,99754.59
2022-10-21T11:39:45.426Z,99758.19
2022-10-21T11:42:41.303Z,99767.47
2022-10-21T11:45:38.149Z,99652.31
2022-10-21T11:48:55.627Z,99747.41
2022-10-21T11:51:49.609Z,99743.66
2022-10-21T11:55:10.375Z,99741.75
2022-10-21T11:58:08.147Z,99746.38
2022-10-21T12:01:07.675Z,99746.44
2022-10-21T12:04:09.793Z,99745.28
2022-10-21T12:07:11.434Z,99750.72
2022-10-21T12:10:06.122Z,99744.75
2022-10-21T12:12:56.143Z,99741.28
2022-10-21T12:15:47.685Z,99728.53
2022-10-21T12:18:42.159Z,99735.84
2022-10-21T12:21:34.077Z,99739.97
2022-10-21T12:24:28.693Z,99742.19
2022-10-21T12:27:22.232Z,99720.59
2022-10-21T12:30:15.415Z,99711.94
2022-10-21T12:33:15.931Z,99737.59
2022-10-21T12:36:20.996Z,99735.41
2022-10-21T12:39:13.271Z,99734.63
2022-10-21T12:42:06.481Z,99726.72
2022-10-21T12:44:55.159Z,99601.25
2022-10-21T12:47:46.716Z,99658.13
2022-10-21T12:50:35.768Z,99731.41
2022-10-21T12:53:34.855Z,99731.16
2022-10-21T12:56:29.678Z,99729.81
2022-10-21T12:59:28.919Z,99723.88
2022-10-21T13:02:27.105Z,99718.16
2022-10-21T13:05:56.247Z,99721.41
2022-10-21T13:08:55.167Z,99696.19
2022-10-21T13:11:43.689Z,99704.59
2022-10-21T13:14:40.630Z,99705.94
2022-10-21T13:17:34.486Z,99699.44
2022-10-21T13:20:45.464Z,99694.00
2022-10-21T13:23:38.651Z,99708.66
2022-10-21T13:26:30.086Z,99717.38
2022-10-21T13:29:31.425Z,99722.28
2022-10-21T13:32:28.589Z,99719.00
2022-10-21T13:35:33.355Z,99717.41
2022-10-21T13:38:23.999Z,99723.09
2022-10-21T13:41:22.439Z,99731.25
2022-10-21T13:44:29.390Z,99736.69
2022-10-21T13:47:30.072Z,99730.72
2022-10-21T13:50:21.706Z,99724.72
2022-10-21T13:53:23.605Z,99695.88
2022-10-21T13:56:19.890Z,99707.59
2022-10-21T13:59:23.321Z,99711.94
2022-10-21T14:02:24.860Z,99686.38
2022-10-21T14:05:32.101Z,99704.06
2022-10-21T14:08:27.261Z,99701.63
2022-10-21T14:11:18.650Z,99698.34
2022-10-21T14:14:09.544Z,99702.16
2022-10-21T14:17:01.483Z,99691.28
2022-10-21T14:19:52.700Z,99698.66
2022-10-21T14:22:41.638Z,99705.97
2022-10-21T14:25:30.939Z,99700.53
2022-10-21T14:28:20.843Z,99707.56
2022-10-21T14:31:12.406Z,99702.66
2022-10-21T14:34:02.327Z,99702.94
2022-10-21T14:37:09.454Z,99695.59
2022-10-21T14:40:11.349Z,99691.25
2022-10-21T14:43:01.785Z,99711.56
2022-10-21T14:45:52.171Z,99708.59
2022-10-21T14:48:46.560Z,99709.13
2022-10-21T14:51:38.317Z,99712.06
2022-10-21T14:54:30.345Z,99695.25
2022-10-21T14:57:30.720Z,99691.34
2022-10-21T15:00:28.935Z,99701.97
2022-10-21T15:03:37.631Z,99696.47
2022-10-21T15:06:27.509Z,99697.28
2022-10-21T15:09:23.994Z,99682.03
2022-10-21T15:12:19.404Z,99689.34
2022-10-21T15:15:41.185Z,99697.19
2022-10-21T15:18:31.070Z,99696.34
2022-10-21T15:21:27.382Z,99704.47
2022-10-21T15:24:21.506Z,99707.69
2022-10-21T15:27:17.198Z,99719.88
2022-10-21T15:30:07.261Z,99710.88
2022-10-21T15:32:56.039Z,99709.19
2022-10-21T15:35:44.652Z,99672.72
2022-10-21T15:38:33.108Z,99709.44
2022-10-21T15:41:24.880Z,99704.78
2022-10-21T15:44:19.567Z,99694.22
2022-10-21T15:47:11.234Z,99686.28
2022-10-21T15:49:59.691Z,99690.59
2022-10-21T15:52:48.328Z,99695.44
2022-10-21T15:55:38.156Z,99695.16
2022-10-21T15:58:28.255Z,99689.09
2022-10-21T16:01:18.594Z,99688.28
2022-10-21T16:04:07.092Z,99689.84
2022-10-21T16:06:56.064Z,99692.75
2022-10-21T16:09:44.522Z,99688.34
2022-10-21T16:12:32.964Z,99697.53
2022-10-21T16:15:23.232Z,99697.22
2022-10-21T16:18:13.047Z,99703.38
2022-10-21T16:21:01.713Z,99693.97
2022-10-21T16:23:50.827Z,99706.84
2022-10-21T16:26:41.388Z,99710.56
2022-10-21T16:29:29.860Z,99708.59
2022-10-21T16:32:19.993Z,99685.31
2022-10-21T16:35:10.219Z,99670.56
2022-10-21T16:37:59.020Z,99702.44
2022-10-21T16:40:47.629Z,99694.53
2022-10-21T16:43:36.468Z,99703.41
2022-10-21T16:46:27.695Z,99674.47
2022-10-21T16:49:21.267Z,99697.28
2022-10-21T16:52:10.938Z,99703.16
2022-10-21T16:54:59.593Z,99707.72
2022-10-21T16:57:48.083Z,99706.63
2022-10-21T17:00:37.013Z,99712.53
2022-10-21T17:03:25.596Z,99702.47
2022-10-21T17:06:17.464Z,99691.84
2022-10-21T17:09:06.073Z,99695.34
2022-10-21T17:11:54.978Z,99714.97
2022-10-21T17:14:43.634Z,99689.75
2022-10-21T17:17:32.115Z,99698.13
2022-10-21T17:20:20.782Z,99698.03
2022-10-21T17:23:12.698Z,99699.34
2022-10-21T17:26:01.858Z,99705.84
2022-10-21T17:28:52.465Z,99705.50
2022-10-21T17:31:42.899Z,99698.97
2022-10-21T17:34:33.002Z,99695.19
2022-10-21T17:37:21.871Z,99687.44
2022-10-21T17:40:15.933Z,99695.78
2022-10-21T17:43:04.858Z,99706.25
2022-10-21T17:45:53.785Z,99709.47
2022-10-21T17:48:42.291Z,99697.25
2022-10-21T17:51:31.202Z,99705.88
2022-10-21T17:54:24.152Z,99693.91
2022-10-21T17:57:17.885Z,99690.81
2022-10-21T18:00:07.520Z,99691.47
2022-10-21T18:02:56.003Z,99705.22
2022-10-21T18:05:44.566Z,99702.28
2022-10-21T18:08:33.229Z,99700.31
2022-10-21T18:11:22.159Z,99696.22
2022-10-21T18:14:12.042Z,99687.19
2022-10-21T18:17:00.598Z,99682.28
2022-10-21T18:19:49.152Z,99685.47
2022-10-21T18:22:37.848Z,99687.38
2022-10-21T18:25:26.610Z,99684.22
2022-10-21T18:28:15.094Z,99694.94
2022-10-21T18:31:06.069Z,99700.59
2022-10-21T18:33:55.362Z,99713.50
2022-10-21T18:36:43.921Z,99699.44
2022-10-21T18:39:32.380Z,99689.59
2022-10-21T18:42:20.843Z,99691.06
2022-10-21T18:45:10.258Z,99659.59
2022-10-21T18:48:00.106Z,99685.81
2022-10-21T18:50:48.550Z,99690.41
2022-10-21T18:53:37.872Z,99687.59
2022-10-21T18:56:27.709Z,99698.38
2022-10-21T18:59:16.212Z,99700.19
2022-10-21T19:02:04.816Z,99707.03
2022-10-21T19:04:57.083Z,99702.47
2022-10-21T19:07:48.303Z,99700.47
2022-10-21T19:10:37.784Z,99715.03
2022-10-21T19:13:28.849Z,99714.31
2022-10-21T19:16:20.048Z,99718.91
2022-10-21T19:19:09.326Z,99701.91
2022-10-21T19:21:59.245Z,99708.00
2022-10-21T19:24:47.777Z,99705.28
2022-10-21T19:27:36.485Z,99696.53
2022-10-21T19:30:25.153Z,99689.31
2022-10-21T19:33:13.877Z,99705.44
2022-10-21T19:36:02.746Z,99681.28
2022-10-21T19:38:52.750Z,99657.53
2022-10-21T19:41:41.674Z,99683.03
2022-10-21T19:44:30.403Z,99679.97
2022-10-21T19:47:18.912Z,99697.25
2022-10-21T19:50:08.891Z,99687.41
2022-10-21T19:52:57.607Z,99712.28
2022-10-21T19:55:47.672Z,99706.66
2022-10-21T19:58:39.384Z,99709.09
2022-10-21T20:01:27.991Z,99716.38
2022-10-21T20:04:16.622Z,99728.00
2022-10-21T20:07:05.072Z,99709.81
2022-10-21T20:09:53.525Z,99732.56
2022-10-21T20:12:43.723Z,99726.50
2022-10-21T20:15:32.320Z,99730.81
2022-10-21T20:18:23.513Z,99731.88
2022-10-21T20:21:15.108Z,99633.72
2022-10-21T20:24:04.445Z,99743.16
2022-10-21T20:26:54.055Z,99756.75
2022-10-21T20:29:45.484Z,99751.59
2022-10-21T20:32:34.173Z,99753.72
2022-10-21T20:35:22.640Z,99755.34
2022-10-21T20:38:11.121Z,99757.72
2022-10-21T20:41:02.349Z,99755.47
2022-10-21T20:43:51.667Z,99751.25
2022-10-21T20:46:41.456Z,99753.34
2022-10-21T20:49:29.999Z,99758.06
2022-10-21T20:52:18.649Z,99768.63
2022-10-21T20:55:07.709Z,99756.53
2022-10-21T20:57:56.175Z,99740.94
2022-10-21T21:00:46.545Z,99751.13
2022-10-21T21:03:38.513Z,99742.03
2022-10-21T21:06:27.660Z,99739.88
2022-10-21T21:09:57.314Z,99708.38
2022-10-21T21:12:26.902Z,99755.84
2022-10-21T21:15:15.681Z,99735.44
2022-10-21T21:18:10.100Z,99740.47
2022-10-21T21:21:04.957Z,99744.81
2022-10-21T21:23:54.192Z,99731.19
2022-10-21T21:26:43.084Z,99744.47
2022-10-21T21:29:31.628Z,99719.31
2022-10-21T21:32:20.051Z,99715.41
2022-10-21T21:35:09.806Z,99715.41
2022-10-21T21:37:59.606Z,99754.31
2022-10-21T21:40:48.272Z,99630.47
2022-10-21T21:43:36.996Z,99747.41
2022-10-21T21:46:26.016Z,99742.16
2022-10-21T21:49:14.437Z,99733.06
2022-10-21T21:52:02.904Z,99739.88
2022-10-21T21:54:54.455Z,99711.53
2022-10-21T21:57:43.213Z,99704.19
2022-10-21T22:00:31.875Z,99702.03
2022-10-21T22:03:21.601Z,99675.53
2022-10-21T22:06:10.235Z,99652.03
2022-10-21T22:08:58.815Z,99651.81
2022-10-21T22:11:48.643Z,99674.06
2022-10-21T22:14:37.078Z,99721.19
2022-10-21T22:17:26.036Z,99734.38
2022-10-21T22:20:14.505Z,99703.91
2022-10-21T22:23:02.907Z,99706.03
2022-10-21T22:25:51.315Z,99722.16
2022-10-21T22:28:41.604Z,99733.94
2022-10-21T22:31:30.601Z,99753.59
2022-10-21T22:34:19.456Z,99748.13
2022-10-21T22:37:07.899Z,99769.13
2022-10-21T22:39:56.314Z,99771.41
2022-10-21T22:45:39.517Z,99743.03
2022-10-21T22:48:27.961Z,99768.44
2022-10-21T22:51:16.451Z,99766.91
2022-10-21T22:54:11.649Z,99760.13
2022-10-21T22:57:03.723Z,99777.53
2022-10-21T22:59:53.490Z,99786.91
2022-10-21T23:02:43.639Z,99774.53
2022-10-21T23:05:32.508Z,99782.84
2022-10-21T23:08:20.943Z,99768.16
2022-10-21T23:11:09.339Z,99818.38
2022-10-21T23:14:03.426Z,99830.94
2022-10-21T23:16:56.460Z,99831.41
2022-10-21T23:19:46.257Z,99818.63
2022-10-21T23:22:34.771Z,99821.09
2022-10-21T23:25:23.863Z,99834.28
2022-10-21T23:28:12.342Z,99848.72
2022-10-21T23:31:01.234Z,99829.94
2022-10-21T23:33:49.727Z,99845.09
2022-10-21T23:36:39.490Z,99840.63
2022-10-21T23:39:28.058Z,99829.69
2022-10-21T23:42:16.498Z,99824.91
2022-10-21T23:45:05.886Z,99844.13
2022-10-21T23:47:54.279Z,99819.75
2022-10-21T23:50:44.678Z,99819.03
2022-10-21T23:53:34.665Z,99815.75
2022-10-21T23:56:23.148Z,99814.91
2022-10-21T23:59:11.578Z,99808.16
